Time;durP1;ratioP1;P1;durP2;ratioP2;P2;SDS_P1;SDS_P2;PMS_P1;PMS_P2;Temp;Humidity;BMP_temperature;BMP_pressure;BME280_temperature;BME280_humidity;BME280_pressure;Samples;Min_cycle;Max_cycle;Signal;HPM_P1;HPM_P2
2022/02/28 00:00:41;;;;;;;12.05;5.68;;;3.30;99.90;;;;;;5072759;28;20052;-76
2022/02/28 00:03:06;;;;;;;12.23;5.57;;;3.30;99.90;;;;;;5072330;28;20048;-75
2022/02/28 00:05:32;;;;;;;13.82;5.22;;;3.20;99.90;;;;;;5071696;28;20114;-74
2022/02/28 00:07:58;;;;;;;9.23;5.70;;;3.20;99.90;;;;;;5071963;28;20067;-74
2022/02/28 00:10:24;;;;;;;7.30;4.85;;;3.20;99.90;;;;;;5072818;28;20111;-75
2022/02/28 00:12:49;;;;;;;9.35;5.65;;;3.10;99.90;;;;;;5071449;28;20031;-76
2022/02/28 00:15:17;;;;;;;11.18;5.63;;;3.10;99.90;;;;;;5072498;28;20498;-76
2022/02/28 00:17:43;;;;;;;8.23;5.13;;;3.10;99.90;;;;;;5082246;28;20039;-76
2022/02/28 00:20:15;;;;;;;8.68;4.90;;;3.20;99.90;;;;;;5092137;28;20025;-75
2022/02/28 00:22:41;;;;;;;8.45;5.45;;;3.10;99.90;;;;;;5092215;28;20020;-75
2022/02/28 00:25:08;;;;;;;7.07;5.35;;;3.00;99.90;;;;;;5093358;28;20036;-76
2022/02/28 00:27:34;;;;;;;8.02;5.03;;;3.00;99.90;;;;;;5092033;28;20028;-76
2022/02/28 00:30:00;;;;;;;9.15;5.75;;;3.00;99.90;;;;;;5092314;28;20401;-76
2022/02/28 00:32:26;;;;;;;10.88;5.65;;;3.00;99.90;;;;;;5092549;28;20031;-77
2022/02/28 00:34:52;;;;;;;7.43;5.05;;;3.00;99.90;;;;;;5092065;28;20025;-74
2022/02/28 00:37:18;;;;;;;8.15;5.25;;;3.10;99.90;;;;;;5092230;28;20027;-74
2022/02/28 00:39:44;;;;;;;8.10;5.78;;;3.00;99.90;;;;;;5092299;28;20472;-75
2022/02/28 00:42:10;;;;;;;10.45;5.28;;;3.00;99.90;;;;;;5091720;28;20020;-75
2022/02/28 00:44:36;;;;;;;7.97;5.32;;;3.00;99.90;;;;;;5092420;28;20063;-75
2022/02/28 00:47:03;;;;;;;7.40;5.50;;;3.00;99.90;;;;;;5096097;28;20125;-74
2022/02/28 00:49:28;;;;;;;10.15;6.00;;;3.00;99.90;;;;;;5095423;28;20515;-74
2022/02/28 00:51:54;;;;;;;8.75;5.10;;;3.00;99.90;;;;;;5096294;28;20024;-77
2022/02/28 00:54:19;;;;;;;7.50;4.95;;;2.90;99.90;;;;;;5095725;28;20024;-76
2022/02/28 00:56:45;;;;;;;11.35;5.15;;;2.90;99.90;;;;;;5096194;28;20532;-76
2022/02/28 00:59:11;;;;;;;7.97;5.28;;;2.90;99.90;;;;;;5096413;28;20375;-74
2022/02/28 01:01:37;;;;;;;9.30;6.20;;;2.90;99.90;;;;;;5095433;28;20367;-75
2022/02/28 01:04:04;;;;;;;8.07;6.13;;;2.90;99.90;;;;;;5096129;28;20048;-75
2022/02/28 01:06:30;;;;;;;12.38;4.68;;;2.90;99.90;;;;;;5096608;28;20075;-75
2022/02/28 01:08:55;;;;;;;11.80;6.47;;;2.80;99.90;;;;;;5095484;28;20047;-75
2022/02/28 01:11:21;;;;;;;8.63;5.63;;;2.80;99.90;;;;;;5096439;28;20030;-74
2022/02/28 01:13:47;;;;;;;10.23;5.40;;;2.70;99.90;;;;;;5095985;28;20468;-76
2022/02/28 01:16:12;;;;;;;8.32;5.50;;;2.80;99.90;;;;;;5095537;28;20024;-75
2022/02/28 01:18:38;;;;;;;6.20;4.95;;;2.70;99.90;;;;;;5095572;28;20526;-76
2022/02/28 01:21:03;;;;;;;8.25;5.40;;;2.60;99.90;;;;;;5096271;28;20173;-75
2022/02/28 01:23:29;;;;;;;7.97;5.50;;;2.60;99.90;;;;;;5095383;28;20020;-75
2022/02/28 01:25:55;;;;;;;9.15;5.25;;;2.50;99.90;;;;;;5095953;28;20033;-75
2022/02/28 01:28:21;;;;;;;12.27;5.57;;;2.50;99.90;;;;;;5095964;28;20368;-75
2022/02/28 01:30:47;;;;;;;11.73;6.03;;;2.50;99.90;;;;;;5094873;28;20494;-77
2022/02/28 01:33:12;;;;;;;6.40;5.13;;;2.40;99.90;;;;;;5096047;28;20024;-76
2022/02/28 01:35:38;;;;;;;6.05;4.50;;;2.40;99.90;;;;;;5095961;28;20028;-76
2022/02/28 01:38:03;;;;;;;9.25;4.80;;;2.30;99.90;;;;;;5096717;28;20499;-75
2022/02/28 01:40:29;;;;;;;7.63;4.97;;;2.30;99.90;;;;;;5096746;28;20028;-75
2022/02/28 01:42:55;;;;;;;10.10;5.47;;;2.30;99.90;;;;;;5096074;28;20016;-75
2022/02/28 01:45:22;;;;;;;9.80;5.25;;;2.20;99.90;;;;;;5094925;28;20155;-75
2022/02/28 01:47:50;;;;;;;10.57;5.22;;;2.20;99.90;;;;;;5095398;28;20020;-75
2022/02/28 01:50:15;;;;;;;7.57;5.13;;;2.20;99.90;;;;;;5098252;28;20056;-75
2022/02/28 01:52:41;;;;;;;6.53;4.80;;;2.20;99.90;;;;;;5094550;28;20502;-75
2022/02/28 01:55:09;;;;;;;10.70;5.35;;;2.10;99.90;;;;;;5095276;28;20036;-75
2022/02/28 01:57:35;;;;;;;10.95;5.32;;;2.00;99.90;;;;;;5095112;28;20057;-75
2022/02/28 02:00:01;;;;;;;10.55;4.70;;;2.00;99.90;;;;;;5094615;28;20032;-76
2022/02/28 02:02:26;;;;;;;10.02;4.85;;;2.00;99.90;;;;;;5094925;28;20088;-76
2022/02/28 02:04:52;;;;;;;8.23;5.20;;;2.00;99.90;;;;;;5093807;28;20548;-75
2022/02/28 02:07:20;;;;;;;6.32;5.20;;;1.90;99.90;;;;;;5095195;28;20036;-74
2022/02/28 02:09:46;;;;;;;9.45;5.40;;;2.00;99.90;;;;;;5094644;28;20169;-75
2022/02/28 02:12:12;;;;;;;10.23;5.68;;;1.90;99.90;;;;;;5093927;28;20535;-75
2022/02/28 02:14:38;;;;;;;6.15;5.15;;;2.00;99.90;;;;;;5094615;28;20032;-76
2022/02/28 02:17:04;;;;;;;7.03;5.32;;;2.00;99.90;;;;;;5094755;28;20226;-74
2022/02/28 02:19:31;;;;;;;9.73;5.20;;;1.90;99.90;;;;;;5094383;28;20031;-75
2022/02/28 02:21:57;;;;;;;10.27;5.07;;;1.90;99.90;;;;;;5094536;28;20476;-76
2022/02/28 02:24:22;;;;;;;8.80;5.00;;;1.90;99.90;;;;;;5094801;28;20103;-75
2022/02/28 02:26:51;;;;;;;8.27;4.68;;;1.90;99.90;;;;;;5093694;28;20036;-76
2022/02/28 02:29:17;;;;;;;10.13;5.40;;;1.90;99.90;;;;;;5094694;28;20475;-76
2022/02/28 02:31:43;;;;;;;9.25;4.78;;;1.90;99.90;;;;;;5094373;28;20085;-75
2022/02/28 02:34:08;;;;;;;8.73;5.35;;;1.90;99.90;;;;;;5093961;28;20058;-76
2022/02/28 02:36:34;;;;;;;9.27;5.18;;;1.80;99.90;;;;;;5094460;28;20016;-77
2022/02/28 02:38:59;;;;;;;7.55;4.88;;;1.80;99.90;;;;;;5094395;28;20397;-76
2022/02/28 02:41:25;;;;;;;10.38;6.35;;;1.80;99.90;;;;;;5093773;28;20491;-75
2022/02/28 02:43:50;;;;;;;10.98;5.20;;;1.70;99.90;;;;;;5094184;28;20024;-75
2022/02/28 02:46:16;;;;;;;7.93;4.88;;;1.70;99.90;;;;;;5094195;28;20032;-75
2022/02/28 02:48:42;;;;;;;7.85;5.65;;;1.70;99.90;;;;;;5093232;28;20030;-76
2022/02/28 02:51:08;;;;;;;11.13;5.32;;;1.70;99.90;;;;;;5094369;28;20464;-75
2022/02/28 02:53:34;;;;;;;10.85;5.07;;;1.60;99.90;;;;;;5094374;28;20063;-75
2022/02/28 02:56:00;;;;;;;10.65;5.20;;;1.70;99.90;;;;;;5093326;28;20463;-75
2022/02/28 02:58:26;;;;;;;8.82;5.55;;;1.70;99.90;;;;;;5094186;28;20031;-75
2022/02/28 03:00:53;;;;;;;7.25;4.60;;;1.60;99.90;;;;;;5093542;28;20024;-75
2022/02/28 03:03:21;;;;;;;8.60;4.70;;;1.60;99.90;;;;;;5093350;28;20096;-75
2022/02/28 03:05:46;;;;;;;11.27;5.35;;;1.70;99.90;;;;;;5087160;28;20116;-75
2022/02/28 03:08:13;;;;;;;11.05;4.88;;;1.60;99.90;;;;;;5072285;28;20131;-75
2022/02/28 03:10:39;;;;;;;8.85;5.03;;;1.70;99.90;;;;;;5073078;28;20487;-75
2022/02/28 03:13:07;;;;;;;10.27;5.05;;;1.60;99.90;;;;;;5073415;28;20107;-74
2022/02/28 03:15:32;;;;;;;8.45;5.05;;;1.60;99.90;;;;;;5072647;28;20033;-75
2022/02/28 03:17:58;;;;;;;7.95;5.05;;;1.60;99.90;;;;;;5073459;28;20090;-76
2022/02/28 03:20:24;;;;;;;6.65;5.05;;;1.70;99.90;;;;;;5073506;28;20047;-75
2022/02/28 03:22:50;;;;;;;8.68;4.55;;;1.60;99.90;;;;;;5072551;28;20031;-76
2022/02/28 03:25:15;;;;;;;9.98;5.00;;;1.60;99.90;;;;;;5073541;28;20499;-76
2022/02/28 03:27:41;;;;;;;7.55;4.28;;;1.60;99.90;;;;;;5073256;28;20029;-76
2022/02/28 03:30:08;;;;;;;9.07;4.72;;;1.50;99.90;;;;;;5072824;28;20028;-76
2022/02/28 03:32:33;;;;;;;8.95;5.40;;;1.60;99.90;;;;;;5073609;28;20059;-74
2022/02/28 03:34:59;;;;;;;5.97;4.60;;;1.60;99.90;;;;;;5072793;28;20052;-76
2022/02/28 03:37:24;;;;;;;8.32;4.60;;;1.60;99.90;;;;;;5072404;28;20429;-76
2022/02/28 03:39:50;;;;;;;7.55;5.00;;;1.60;99.90;;;;;;5073142;28;20070;-76
2022/02/28 03:42:15;;;;;;;9.20;4.93;;;1.50;99.90;;;;;;5073557;28;20075;-75
2022/02/28 03:44:41;;;;;;;7.38;5.03;;;1.50;99.90;;;;;;5072472;28;20017;-77
2022/02/28 03:47:07;;;;;;;7.82;4.47;;;1.50;99.90;;;;;;5073212;28;20037;-76
2022/02/28 03:49:32;;;;;;;6.28;4.50;;;1.60;99.90;;;;;;5072810;28;20081;-76
2022/02/28 03:51:58;;;;;;;7.70;4.93;;;1.50;99.90;;;;;;5072190;28;20032;-75
2022/02/28 03:54:23;;;;;;;8.82;5.13;;;1.50;99.90;;;;;;5072576;28;20092;-76
2022/02/28 03:56:49;;;;;;;7.68;4.53;;;1.50;99.90;;;;;;5072662;28;20031;-74
2022/02/28 03:59:15;;;;;;;9.25;5.13;;;1.50;99.90;;;;;;5071894;28;20059;-76
2022/02/28 04:01:41;;;;;;;8.00;5.20;;;1.40;99.90;;;;;;5072983;28;20119;-76
2022/02/28 04:04:08;;;;;;;8.75;5.13;;;1.50;99.90;;;;;;5072598;28;20059;-77
2022/02/28 04:06:35;;;;;;;6.90;4.90;;;1.50;99.90;;;;;;5072030;28;20037;-76
2022/02/28 04:09:01;;;;;;;6.43;4.28;;;1.50;99.90;;;;;;5072591;28;20078;-75
2022/02/28 04:11:28;;;;;;;9.43;5.50;;;1.40;99.90;;;;;;5071869;28;20054;-75
2022/02/28 04:13:54;;;;;;;8.15;4.72;;;1.40;99.90;;;;;;5072460;28;20039;-75
2022/02/28 04:16:20;;;;;;;8.73;4.85;;;1.40;99.90;;;;;;5072833;28;20025;-75
2022/02/28 04:18:48;;;;;;;7.55;5.07;;;1.40;99.90;;;;;;5071723;28;20024;-73
2022/02/28 04:21:14;;;;;;;9.30;4.90;;;1.40;99.90;;;;;;5072071;28;20090;-75
2022/02/28 04:23:43;;;;;;;7.72;5.25;;;1.40;99.90;;;;;;5072295;28;20032;-75
2022/02/28 04:26:08;;;;;;;7.97;5.20;;;1.30;99.90;;;;;;5070728;28;20044;-76
2022/02/28 04:28:34;;;;;;;8.35;4.85;;;1.30;99.90;;;;;;5072632;28;20097;-76
2022/02/28 04:30:59;;;;;;;8.25;5.00;;;1.30;99.90;;;;;;5072215;28;20358;-75
2022/02/28 04:33:25;;;;;;;5.65;4.60;;;1.30;99.90;;;;;;5072904;28;20021;-75
2022/02/28 04:35:50;;;;;;;6.72;5.47;;;1.30;99.90;;;;;;5071799;28;20054;-75
2022/02/28 04:38:16;;;;;;;9.25;4.72;;;1.20;99.90;;;;;;5072303;28;20050;-75
2022/02/28 04:40:41;;;;;;;9.50;4.82;;;1.20;99.90;;;;;;5071060;28;20033;-75
2022/02/28 04:43:07;;;;;;;10.32;5.07;;;1.20;99.90;;;;;;5072526;28;20111;-75
2022/02/28 04:45:33;;;;;;;9.10;4.90;;;1.20;99.90;;;;;;5071905;28;20070;-75
2022/02/28 04:47:58;;;;;;;8.05;5.00;;;1.30;99.90;;;;;;5071128;28;20495;-74
2022/02/28 04:50:24;;;;;;;9.23;5.53;;;1.20;99.90;;;;;;5072348;28;20020;-75
2022/02/28 04:52:49;;;;;;;8.63;4.45;;;1.20;99.90;;;;;;5072041;28;20024;-74
2022/02/28 04:55:15;;;;;;;10.77;4.82;;;1.20;99.90;;;;;;5071502;28;20025;-75
2022/02/28 04:57:43;;;;;;;11.18;5.13;;;1.10;99.90;;;;;;5072179;28;20032;-75
2022/02/28 05:00:10;;;;;;;10.60;5.05;;;1.10;99.90;;;;;;5072325;28;20028;-75
2022/02/28 05:02:36;;;;;;;6.10;4.10;;;1.10;99.90;;;;;;5053108;28;20045;-75
2022/02/28 05:05:03;;;;;;;11.07;5.10;;;1.10;99.90;;;;;;5072264;28;20067;-75
2022/02/28 05:07:29;;;;;;;8.45;5.18;;;1.00;99.90;;;;;;5071819;28;20426;-75
2022/02/28 05:09:55;;;;;;;6.47;4.32;;;1.00;99.90;;;;;;5071420;28;20028;-75
2022/02/28 05:12:21;;;;;;;9.18;5.32;;;1.10;99.90;;;;;;5072377;28;20021;-75
2022/02/28 05:14:46;;;;;;;8.63;4.47;;;1.00;99.90;;;;;;5070728;28;20028;-75
2022/02/28 05:17:12;;;;;;;9.43;4.65;;;1.00;99.90;;;;;;5071427;28;20056;-75
2022/02/28 05:19:37;;;;;;;10.70;4.03;;;0.90;99.90;;;;;;5071479;28;20031;-75
2022/02/28 05:22:03;;;;;;;9.68;4.43;;;1.00;99.90;;;;;;5071128;28;20031;-75
2022/02/28 05:24:33;;;;;;;5.45;4.20;;;1.00;99.90;;;;;;5071813;28;20031;-75
2022/02/28 05:26:58;;;;;;;7.78;4.57;;;0.90;99.90;;;;;;5071651;28;20036;-75
2022/02/28 05:29:24;;;;;;;10.88;4.32;;;1.00;99.90;;;;;;5071413;28;20020;-75
2022/02/28 05:31:50;;;;;;;5.45;4.43;;;1.00;99.90;;;;;;5073589;28;20158;-75
2022/02/28 05:34:15;;;;;;;8.85;5.38;;;0.90;99.90;;;;;;5075435;28;20029;-75
2022/02/28 05:36:41;;;;;;;5.88;4.50;;;0.90;99.90;;;;;;5074443;28;20029;-74
2022/02/28 05:39:06;;;;;;;9.05;4.72;;;0.80;99.90;;;;;;5075778;28;20517;-75
2022/02/28 05:41:32;;;;;;;8.07;4.85;;;0.80;99.90;;;;;;5075825;28;20068;-75
2022/02/28 05:43:58;;;;;;;10.27;4.38;;;0.80;99.90;;;;;;5074481;28;20127;-74
2022/02/28 05:46:23;;;;;;;9.65;4.82;;;0.80;99.90;;;;;;5075612;28;20094;-75
2022/02/28 05:48:49;;;;;;;10.20;4.30;;;0.70;99.90;;;;;;5075424;28;20025;-74
2022/02/28 05:51:15;;;;;;;11.93;5.15;;;0.80;99.90;;;;;;5076580;28;20051;-76
2022/02/28 05:53:41;;;;;;;7.93;4.68;;;0.80;99.90;;;;;;5075089;28;20369;-75
2022/02/28 05:56:06;;;;;;;8.43;4.78;;;0.80;99.90;;;;;;5074778;28;20059;-75
2022/02/28 05:58:32;;;;;;;8.43;4.57;;;0.70;99.90;;;;;;5074469;28;20031;-75
2022/02/28 06:00:58;;;;;;;10.40;5.18;;;0.70;99.90;;;;;;5074696;28;20052;-75
2022/02/28 06:03:23;;;;;;;7.40;4.13;;;0.70;99.90;;;;;;5074600;28;20052;-75
2022/02/28 06:05:49;;;;;;;7.65;5.00;;;0.70;99.90;;;;;;5073710;28;20046;-75
2022/02/28 06:08:15;;;;;;;6.28;4.90;;;0.60;99.90;;;;;;5074662;28;20047;-76
2022/02/28 06:10:40;;;;;;;6.32;4.47;;;0.70;99.90;;;;;;5074457;28;20052;-76
2022/02/28 06:13:09;;;;;;;6.15;4.60;;;0.60;99.90;;;;;;5074056;28;20036;-75
2022/02/28 06:15:34;;;;;;;14.43;4.90;;;0.60;99.90;;;;;;5074602;28;20025;-75
2022/02/28 06:18:01;;;;;;;9.23;4.38;;;0.60;99.90;;;;;;5073502;28;20032;-76
2022/02/28 06:20:27;;;;;;;14.90;5.63;;;0.60;99.90;;;;;;5074347;28;20028;-75
2022/02/28 06:22:53;;;;;;;11.20;4.68;;;0.50;99.90;;;;;;5073936;28;20024;-75
2022/02/28 06:25:19;;;;;;;14.25;4.82;;;0.50;99.90;;;;;;5074119;28;20028;-75
2022/02/28 06:27:45;;;;;;;7.82;4.90;;;0.50;99.90;;;;;;5074336;28;20163;-75
2022/02/28 06:30:10;;;;;;;12.05;5.68;;;0.50;99.90;;;;;;5074913;28;20021;-76
2022/02/28 06:32:39;;;;;;;9.75;4.25;;;0.50;99.90;;;;;;5081695;28;20067;-76
2022/02/28 06:35:05;;;;;;;7.85;4.82;;;0.50;99.90;;;;;;5093138;28;20059;-76
2022/02/28 06:37:30;;;;;;;14.23;5.15;;;0.50;99.90;;;;;;5089983;28;20099;-75
2022/02/28 06:39:56;;;;;;;11.05;5.40;;;0.50;99.90;;;;;;5092542;28;20116;-76
2022/02/28 06:42:22;;;;;;;8.32;6.60;;;0.50;99.90;;;;;;5089724;28;20115;-76
2022/02/28 06:44:47;;;;;;;18.20;4.97;;;0.50;99.90;;;;;;5092460;28;20475;-76
2022/02/28 06:47:13;;;;;;;13.38;5.15;;;0.50;99.90;;;;;;5091081;28;20473;-76
2022/02/28 06:49:38;;;;;;;15.45;5.10;;;0.50;99.90;;;;;;5091841;28;20100;-76
2022/02/28 06:52:05;;;;;;;14.88;5.25;;;0.50;99.90;;;;;;5090290;28;20107;-76
2022/02/28 06:54:31;;;;;;;9.40;4.50;;;0.60;99.90;;;;;;5092716;28;20030;-75
2022/02/28 06:56:57;;;;;;;8.30;5.75;;;0.60;99.90;;;;;;5092980;28;20020;-76
2022/02/28 06:59:23;;;;;;;14.50;5.63;;;0.60;99.90;;;;;;5092689;28;20483;-75
2022/02/28 07:01:48;;;;;;;14.13;5.15;;;0.60;99.90;;;;;;5091583;28;20059;-75
2022/02/28 07:04:14;;;;;;;8.13;4.75;;;0.70;99.90;;;;;;5092371;28;20036;-77
2022/02/28 07:06:39;;;;;;;10.75;5.97;;;0.70;99.90;;;;;;5092128;28;20467;-76
2022/02/28 07:09:07;;;;;;;11.02;5.13;;;0.70;99.90;;;;;;5081380;28;20475;-75
2022/02/28 07:11:34;;;;;;;14.20;5.15;;;0.80;99.90;;;;;;5072758;28;20111;-75
2022/02/28 07:14:00;;;;;;;19.83;5.85;;;0.80;99.90;;;;;;5072047;28;20020;-75
2022/02/28 07:16:25;;;;;;;10.10;5.07;;;0.90;99.90;;;;;;5085181;28;20020;-75
2022/02/28 07:18:51;;;;;;;8.15;5.47;;;0.90;99.90;;;;;;5082430;28;20108;-83
2022/02/28 07:21:17;;;;;;;11.95;5.30;;;1.00;99.90;;;;;;5078873;28;20090;-83
2022/02/28 07:23:42;;;;;;;15.85;5.32;;;1.10;99.90;;;;;;5078759;28;20152;-83
2022/02/28 07:26:08;;;;;;;9.63;5.50;;;1.10;99.90;;;;;;5083201;28;20527;-83
2022/02/28 07:28:33;;;;;;;7.93;5.45;;;1.20;99.90;;;;;;5086397;28;20439;-83
2022/02/28 07:30:59;;;;;;;7.22;4.78;;;1.20;99.90;;;;;;5094901;28;20123;-80
2022/02/28 07:33:24;;;;;;;9.38;5.50;;;1.60;99.90;;;;;;5091635;28;20088;-81
2022/02/28 07:35:50;;;;;;;13.05;5.53;;;1.30;99.90;;;;;;5078203;28;20032;-82
2022/02/28 07:38:16;;;;;;;13.48;5.72;;;1.50;99.90;;;;;;5081559;28;20016;-80
2022/02/28 07:40:41;;;;;;;9.90;6.10;;;1.50;99.90;;;;;;5081175;28;20024;-79
2022/02/28 07:43:07;;;;;;;12.63;6.28;;;1.60;99.90;;;;;;5080389;28;20017;-80
2022/02/28 07:45:32;;;;;;;8.82;6.10;;;1.60;99.90;;;;;;5082312;28;20067;-78
2022/02/28 07:47:59;;;;;;;13.52;6.25;;;1.70;99.90;;;;;;5076305;28;20017;-79
2022/02/28 07:50:24;;;;;;;13.20;6.07;;;1.70;99.90;;;;;;5075800;28;20357;-77
2022/02/28 07:52:53;;;;;;;8.82;6.43;;;1.80;99.90;;;;;;5081801;28;20031;-82
2022/02/28 07:55:18;;;;;;;10.98;6.82;;;1.80;99.90;;;;;;5088610;28;20737;-83
2022/02/28 07:57:44;;;;;;;15.20;7.05;;;1.90;99.90;;;;;;5091529;28;20074;-83
2022/02/28 08:00:10;;;;;;;8.35;5.45;;;1.90;99.90;;;;;;5098622;28;20028;-81
2022/02/28 08:02:36;;;;;;;14.13;7.07;;;2.00;99.90;;;;;;5087561;28;20048;-81
2022/02/28 08:05:02;;;;;;;9.38;5.38;;;2.10;99.90;;;;;;5077341;28;20040;-83
2022/02/28 08:07:28;;;;;;;9.77;5.35;;;2.10;99.90;;;;;;5080779;28;20050;-82
2022/02/28 08:09:53;;;;;;;9.75;5.75;;;2.20;99.90;;;;;;5078708;28;20024;-83
2022/02/28 08:12:19;;;;;;;11.50;5.80;;;2.20;99.90;;;;;;5075666;28;20025;-79
2022/02/28 08:14:44;;;;;;;7.80;5.32;;;2.30;99.90;;;;;;5075077;28;20021;-80
2022/02/28 08:17:12;;;;;;;14.25;5.60;;;2.30;99.90;;;;;;5076677;28;20025;-82
2022/02/28 08:19:38;;;;;;;10.55;5.35;;;2.40;99.90;;;;;;5077760;28;20502;-79
2022/02/28 08:22:04;;;;;;;9.27;5.60;;;2.50;99.90;;;;;;5090727;28;20032;-79
2022/02/28 08:24:35;;;;;;;6.88;5.55;;;2.60;99.90;;;;;;5094142;28;20028;-80
2022/02/28 08:27:01;;;;;;;16.45;6.18;;;2.60;99.90;;;;;;5094316;28;20036;-77
2022/02/28 08:29:26;;;;;;;13.00;7.05;;;2.70;99.90;;;;;;5094024;28;20357;-79
2022/02/28 08:31:52;;;;;;;10.10;5.72;;;2.70;99.90;;;;;;5083704;28;20036;-76
2022/02/28 08:34:18;;;;;;;7.65;5.13;;;2.90;99.90;;;;;;5073426;28;20021;-79
2022/02/28 08:36:44;;;;;;;10.57;5.57;;;2.90;99.90;;;;;;5074406;28;20085;-78
2022/02/28 08:39:09;;;;;;;10.05;6.00;;;3.00;99.90;;;;;;5073353;28;20388;-78
2022/02/28 08:41:36;;;;;;;10.18;5.85;;;3.00;99.90;;;;;;5074497;28;20525;-78
2022/02/28 08:44:03;;;;;;;7.80;6.22;;;3.20;99.90;;;;;;5073880;28;20060;-78
2022/02/28 08:46:29;;;;;;;7.97;5.50;;;3.30;99.90;;;;;;5073776;28;20037;-78
2022/02/28 08:48:54;;;;;;;9.30;5.30;;;3.40;99.90;;;;;;5073889;28;20007;-79
2022/02/28 08:51:20;;;;;;;11.48;5.90;;;3.40;99.90;;;;;;5074607;28;20060;-80
2022/02/28 08:53:45;;;;;;;8.02;5.38;;;3.40;99.90;;;;;;5073032;28;20052;-80
2022/02/28 08:56:11;;;;;;;8.65;5.75;;;3.50;99.90;;;;;;5074110;28;20070;-82
2022/02/28 08:58:36;;;;;;;8.70;4.80;;;3.60;99.90;;;;;;5074865;28;20029;-81
2022/02/28 09:01:04;;;;;;;7.43;5.35;;;3.60;99.90;;;;;;5073429;28;20025;-82
2022/02/28 09:03:30;;;;;;;7.90;5.40;;;3.70;99.90;;;;;;5074031;28;20081;-82
2022/02/28 09:05:56;;;;;;;9.13;5.75;;;3.70;99.90;;;;;;5074460;28;20037;-83
2022/02/28 09:08:22;;;;;;;10.05;5.32;;;3.80;99.90;;;;;;5078729;28;20103;-82
2022/02/28 09:10:47;;;;;;;7.50;5.35;;;3.90;99.90;;;;;;5077798;28;20052;-83
2022/02/28 09:13:13;;;;;;;7.88;5.20;;;3.90;99.90;;;;;;5078572;28;20008;-83
2022/02/28 09:15:39;;;;;;;9.88;5.32;;;4.00;99.90;;;;;;5088878;28;20024;-82
2022/02/28 09:18:07;;;;;;;9.30;5.40;;;4.10;99.90;;;;;;5099149;28;20058;-83
2022/02/28 09:20:36;;;;;;;6.90;5.05;;;4.10;99.90;;;;;;5098267;28;20024;-82
2022/02/28 09:23:02;;;;;;;8.52;5.13;;;4.20;99.90;;;;;;5092823;28;20028;-82
2022/02/28 09:25:28;;;;;;;10.85;5.40;;;4.30;99.90;;;;;;5094209;28;20545;-81
2022/02/28 09:27:54;;;;;;;9.20;5.63;;;4.40;99.90;;;;;;5093629;28;20028;-82
2022/02/28 09:30:20;;;;;;;11.52;5.72;;;4.50;99.90;;;;;;5104392;28;20470;-81
2022/02/28 09:32:45;;;;;;;10.55;5.15;;;4.60;99.90;;;;;;5103110;28;20028;-81
2022/02/28 09:35:11;;;;;;;10.45;5.30;;;4.60;99.90;;;;;;5107000;28;20028;-82
2022/02/28 09:37:37;;;;;;;7.32;4.95;;;4.70;99.90;;;;;;5099618;28;20103;-82
2022/02/28 09:40:04;;;;;;;7.85;5.68;;;4.80;99.90;;;;;;5106407;28;20501;-83
2022/02/28 09:42:31;;;;;;;9.38;5.32;;;4.80;99.90;;;;;;5111587;28;20080;-83
2022/02/28 09:44:57;;;;;;;7.50;5.63;;;4.90;99.90;;;;;;5102692;28;20036;-83
2022/02/28 09:47:23;;;;;;;7.53;5.82;;;5.00;99.90;;;;;;5108233;28;20058;-82
2022/02/28 09:49:49;;;;;;;12.10;5.20;;;5.00;99.90;;;;;;5105820;28;20471;-81
2022/02/28 09:52:14;;;;;;;7.05;5.50;;;5.10;99.90;;;;;;5102958;28;20035;-82
2022/02/28 09:54:40;;;;;;;12.82;5.30;;;5.20;99.90;;;;;;5101492;28;20112;-80
2022/02/28 09:57:08;;;;;;;6.75;5.60;;;5.20;99.90;;;;;;5102998;28;20116;-81
2022/02/28 09:59:36;;;;;;;9.23;5.78;;;5.30;99.90;;;;;;5103394;28;20023;-84
2022/02/28 10:02:02;;;;;;;12.00;6.40;;;5.40;99.90;;;;;;5093332;28;20059;-81
2022/02/28 10:04:28;;;;;;;8.75;5.55;;;5.50;99.90;;;;;;5093911;28;20039;-80
2022/02/28 10:06:53;;;;;;;11.57;6.10;;;5.50;99.90;;;;;;5099541;28;20502;-80
2022/02/28 10:09:20;;;;;;;8.43;5.55;;;5.60;99.90;;;;;;5102395;28;20016;-80
2022/02/28 10:11:51;;;;;;;7.72;5.90;;;5.70;99.90;;;;;;5098369;28;20288;-80
2022/02/28 10:14:17;;;;;;;;;;;5.80;99.90;;;;;;5093597;28;20062;-81
2022/02/28 10:16:44;;;;;;;12.38;5.68;;;5.90;99.90;;;;;;5098875;28;19951;-80
2022/02/28 10:19:21;;;;;;;6.05;5.05;;;5.90;99.90;;;;;;5093092;28;20471;-81
2022/02/28 10:21:52;;;;;;;8.73;6.38;;;6.00;99.90;;;;;;5097428;28;20052;-80
2022/02/28 10:24:20;;;;;;;9.75;5.30;;;6.10;99.90;;;;;;5095380;28;20825;-80
2022/02/28 10:26:49;;;;;;;11.25;6.78;;;6.20;99.90;;;;;;5094212;28;20051;-81
2022/02/28 10:29:17;;;;;;;7.80;5.68;;;6.20;99.90;;;;;;5093242;28;20023;-80
2022/02/28 10:31:44;;;;;;;8.38;5.53;;;6.30;99.90;;;;;;5094753;28;20024;-79
2022/02/28 10:34:12;;;;;;;8.55;5.97;;;6.40;99.90;;;;;;5093828;28;20653;-80
2022/02/28 10:36:38;;;;;;;10.63;5.85;;;6.50;99.90;;;;;;5097736;28;20090;-80
2022/02/28 10:39:07;;;;;;;11.50;5.65;;;6.60;99.90;;;;;;5093745;28;20076;-81
2022/02/28 10:41:43;;;;;;;7.45;6.13;;;6.70;99.90;;;;;;5100284;28;20552;-80
2022/02/28 10:44:13;;;;;;;9.25;5.20;;;6.80;99.90;;;;;;5094443;28;20146;-81
2022/02/28 10:46:44;;;;;;;8.20;5.78;;;6.90;99.90;;;;;;5093260;28;20035;-79
2022/02/28 10:49:20;;;;;;;8.73;5.90;;;6.90;99.90;;;;;;5095474;28;20027;-80
2022/02/28 10:51:52;;;;;;;10.00;6.10;;;7.00;99.90;;;;;;5091182;28;20051;-80
2022/02/28 10:54:25;;;;;;;9.10;5.82;;;7.00;99.90;;;;;;5097073;28;20076;-80
2022/02/28 10:57:06;;;;;;;9.43;5.90;;;7.00;99.90;;;;;;5098586;28;20044;-80
2022/02/28 10:59:32;;;;;;;;;;;7.10;99.90;;;;;;5096464;28;20024;-81
2022/02/28 11:01:58;;;;;;;6.57;5.18;;;7.20;99.90;;;;;;5094478;28;19908;-84
2022/02/28 11:04:31;;;;;;;6.55;5.15;;;7.30;99.90;;;;;;5095835;28;20178;-79
2022/02/28 11:06:57;;;;;;;9.45;6.35;;;7.40;99.90;;;;;;5097017;28;20127;-79
2022/02/28 11:09:35;;;;;;;7.38;5.95;;;7.50;99.50;;;;;;5102648;28;20077;-87
2022/02/28 11:12:24;;;;;;;6.20;5.40;;;7.60;99.80;;;;;;5097643;28;20025;-80
2022/02/28 11:14:51;;;;;;;8.85;6.20;;;7.70;99.90;;;;;;5096175;28;20069;-77
2022/02/28 11:17:18;;;;;;;7.65;6.45;;;7.70;99.90;;;;;;5094512;28;20050;-78
2022/02/28 11:19:46;;;;;;;8.68;5.82;;;7.70;99.70;;;;;;5094950;28;20237;-77
2022/02/28 11:22:11;;;;;;;7.35;5.85;;;7.80;99.60;;;;;;5097390;28;20051;-79
2022/02/28 11:24:39;;;;;;;8.55;5.10;;;7.90;98.60;;;;;;5097599;28;20455;-79
2022/02/28 11:27:05;;;;;;;11.95;6.20;;;7.90;98.70;;;;;;5091860;28;20470;-79
2022/02/28 11:29:31;;;;;;;7.47;5.28;;;8.00;97.80;;;;;;5093441;28;20494;-78
2022/02/28 11:31:56;;;;;;;8.45;5.55;;;8.00;97.80;;;;;;5093275;28;20032;-79
2022/02/28 11:34:23;;;;;;;9.30;5.40;;;8.10;97.20;;;;;;5095486;28;20020;-78
2022/02/28 11:36:58;;;;;;;11.77;5.72;;;8.10;97.20;;;;;;5095823;28;20035;-78
2022/02/28 11:39:29;;;;;;;7.97;6.25;;;8.20;96.80;;;;;;5092604;28;20012;-78
2022/02/28 11:41:57;;;;;;;10.05;5.47;;;8.30;96.90;;;;;;5092046;28;20028;-78
2022/02/28 11:44:24;;;;;;;14.45;6.07;;;8.40;97.30;;;;;;5088043;28;20429;-78
2022/02/28 11:47:01;;;;;;;6.90;5.22;;;8.50;97.20;;;;;;5093788;28;20127;-77
2022/02/28 11:49:41;;;;;;;9.52;5.78;;;8.60;97.30;;;;;;5094338;28;20028;-78
2022/02/28 11:52:33;;;;;;;8.70;5.22;;;8.60;97.60;;;;;;5093404;28;20059;-79
2022/02/28 11:55:10;;;;;;;6.18;5.20;;;8.60;96.90;;;;;;5096977;28;20036;-78
2022/02/28 11:57:54;;;;;;;6.65;5.95;;;8.70;96.10;;;;;;5091723;28;20094;-78
2022/02/28 12:00:44;;;;;;;11.63;5.65;;;8.80;95.90;;;;;;5099687;28;20028;-77
2022/02/28 12:03:28;;;;;;;10.40;6.40;;;8.80;96.10;;;;;;5095555;28;20046;-78
2022/02/28 12:05:53;;;;;;;8.20;6.22;;;8.80;96.50;;;;;;5094529;28;20036;-78
2022/02/28 12:08:35;;;;;;;6.05;5.45;;;8.90;96.20;;;;;;5090219;28;20171;-78
2022/02/28 12:11:17;;;;;;;8.50;5.68;;;9.00;96.20;;;;;;5092612;28;20047;-78
2022/02/28 12:13:42;;;;;;;6.65;5.65;;;9.00;95.80;;;;;;5093807;28;20016;-78
2022/02/28 12:19:33;;;;;;;7.35;5.63;;;9.10;96.00;;;;;;5091365;28;20091;-79
2022/02/28 12:22:04;;;;;;;8.55;5.57;;;9.10;95.50;;;;;;5098032;28;20474;-78
2022/02/28 12:25:08;;;;;;;12.52;5.93;;;9.20;95.60;;;;;;5085936;28;20024;-80
2022/02/28 12:27:47;;;;;;;12.95;5.80;;;9.30;95.60;;;;;;5009032;28;20037;-76
2022/02/28 12:30:38;;;;;;;7.72;5.47;;;9.40;94.80;;;;;;5012687;28;20406;-79
2022/02/28 12:33:04;;;;;;;;;;;9.50;95.10;;;;;;5064591;28;20032;-80
2022/02/28 12:35:53;;;;;;;9.23;6.35;;;9.40;95.00;;;;;;5090215;28;19904;-79
2022/02/28 12:38:21;;;;;;;11.32;5.82;;;9.50;95.00;;;;;;5088857;28;20506;-78
2022/02/28 12:40:49;;;;;;;9.10;5.93;;;9.60;93.80;;;;;;5084577;28;20036;-80
2022/02/28 12:43:16;;;;;;;8.60;5.97;;;9.60;92.80;;;;;;5086417;28;20021;-80
2022/02/28 12:45:42;;;;;;;8.00;6.25;;;9.70;92.60;;;;;;5082979;28;20162;-79
2022/02/28 12:48:08;;;;;;;10.77;7.82;;;9.70;93.20;;;;;;5077700;28;20048;-80
2022/02/28 12:50:34;;;;;;;7.25;6.47;;;9.80;92.80;;;;;;5089940;28;20560;-80
2022/02/28 12:53:00;;;;;;;7.43;5.70;;;9.90;92.80;;;;;;5081554;28;20044;-79
2022/02/28 12:55:25;;;;;;;7.60;6.30;;;9.90;92.90;;;;;;5088694;28;20525;-80
2022/02/28 12:57:51;;;;;;;7.85;5.72;;;10.00;93.20;;;;;;5083208;28;20388;-80